Time;durP1;ratioP1;P1;durP2;ratioP2;P2;SDS_P1;SDS_P2;PMS_P1;PMS_P2;Temp;Humidity;BMP_temperature;BMP_pressure;BME280_temperature;BME280_humidity;BME280_pressure;Samples;Min_cycle;Max_cycle;Signal;HPM_P1;HPM_P2
2024/02/18 00:01:35;;;;;;;34.65;15.45;;;9.10;99.90;;;;;;4885704;29;20028;-62
2024/02/18 00:04:01;;;;;;;39.60;14.85;;;9.20;99.90;;;;;;4886898;29;20040;-62
2024/02/18 00:06:30;;;;;;;37.50;15.05;;;9.10;99.90;;;;;;4893935;29;20505;-63
2024/02/18 00:08:55;;;;;;;34.17;15.25;;;9.10;99.90;;;;;;4892095;29;20037;-62
2024/02/18 00:11:21;;;;;;;35.28;15.60;;;9.10;99.90;;;;;;4888051;29;20045;-63
2024/02/18 00:13:47;;;;;;;35.38;15.57;;;9.10;99.90;;;;;;4874852;29;20434;-63
2024/02/18 00:16:12;;;;;;;40.08;16.67;;;9.10;99.90;;;;;;4885979;29;20033;-62
2024/02/18 00:18:38;;;;;;;33.53;14.90;;;9.20;99.90;;;;;;4888451;29;20063;-62
2024/02/18 00:21:04;;;;;;;32.88;14.18;;;9.10;99.90;;;;;;4885090;29;20043;-63
2024/02/18 00:23:29;;;;;;;33.85;14.88;;;9.10;99.90;;;;;;4884179;29;20036;-63
2024/02/18 00:25:55;;;;;;;35.95;15.68;;;9.10;99.90;;;;;;4886992;29;20115;-62
2024/02/18 00:28:21;;;;;;;29.45;13.93;;;9.20;99.90;;;;;;4887849;29;20028;-63
2024/02/18 00:30:49;;;;;;;31.17;13.95;;;9.20;99.90;;;;;;4890481;29;20029;-62
2024/02/18 00:33:15;;;;;;;36.05;15.30;;;9.20;99.90;;;;;;4888488;29;20465;-62
2024/02/18 00:35:41;;;;;;;34.13;13.70;;;9.20;99.90;;;;;;4887132;29;20357;-63
2024/02/18 00:38:06;;;;;;;29.20;13.18;;;9.20;99.90;;;;;;4886700;29;20033;-63
2024/02/18 00:40:32;;;;;;;34.30;12.82;;;9.30;99.90;;;;;;4874036;29;20061;-63
2024/02/18 00:42:58;;;;;;;32.10;13.80;;;9.30;99.90;;;;;;4868922;29;20499;-63
2024/02/18 00:45:23;;;;;;;31.42;13.63;;;9.40;99.90;;;;;;4888840;29;20084;-63
2024/02/18 00:47:49;;;;;;;31.80;13.82;;;9.40;99.90;;;;;;4886967;29;20048;-63
2024/02/18 00:50:14;;;;;;;30.38;13.63;;;9.40;99.90;;;;;;4886123;29;20040;-63
2024/02/18 00:52:40;;;;;;;36.13;13.15;;;9.40;99.90;;;;;;4886914;29;20041;-63
2024/02/18 00:55:07;;;;;;;29.75;13.25;;;9.40;99.90;;;;;;4886221;29;20041;-64
2024/02/18 00:57:32;;;;;;;37.20;14.40;;;9.40;99.90;;;;;;4887056;29;20559;-62
2024/02/18 00:59:58;;;;;;;33.63;12.63;;;9.40;99.90;;;;;;4887263;29;20025;-64
2024/02/18 01:02:26;;;;;;;29.50;12.68;;;9.40;99.90;;;;;;4881028;29;20033;-62
2024/02/18 01:04:51;;;;;;;33.95;11.48;;;9.40;99.90;;;;;;4883940;29;20031;-63
2024/02/18 01:07:17;;;;;;;30.88;12.55;;;9.30;99.90;;;;;;4883572;29;20119;-63
2024/02/18 01:09:43;;;;;;;26.75;12.00;;;9.40;99.90;;;;;;4887176;29;20036;-63
2024/02/18 01:12:08;;;;;;;27.73;9.50;;;9.40;99.90;;;;;;4884777;29;20423;-61
2024/02/18 01:14:34;;;;;;;26.40;10.80;;;9.40;99.90;;;;;;4887655;29;20032;-62
2024/02/18 01:17:02;;;;;;;20.50;9.13;;;9.40;99.90;;;;;;4883698;29;20028;-62
2024/02/18 01:19:27;;;;;;;25.00;10.23;;;9.50;99.90;;;;;;4884826;29;20164;-62
2024/02/18 01:21:53;;;;;;;26.88;10.40;;;9.50;99.90;;;;;;4868242;29;20127;-62
2024/02/18 01:24:18;;;;;;;24.92;10.82;;;9.50;99.90;;;;;;4894292;29;20085;-62
2024/02/18 01:26:44;;;;;;;28.23;9.88;;;9.50;99.90;;;;;;4890003;29;20111;-62
2024/02/18 01:29:10;;;;;;;23.48;9.65;;;9.60;99.90;;;;;;4888787;29;20533;-62
2024/02/18 01:31:35;;;;;;;19.48;9.88;;;9.50;99.90;;;;;;4879862;29;20029;-62
2024/02/18 01:34:01;;;;;;;24.55;9.35;;;9.50;99.90;;;;;;4888835;29;20033;-63
2024/02/18 01:36:27;;;;;;;19.42;8.77;;;9.60;99.90;;;;;;4888423;29;20096;-62
2024/02/18 01:38:53;;;;;;;19.65;8.45;;;9.60;99.90;;;;;;4888673;29;20087;-62
2024/02/18 01:41:18;;;;;;;20.67;8.77;;;9.60;99.90;;;;;;4872868;29;20035;-62
2024/02/18 01:43:44;;;;;;;20.00;7.93;;;9.60;99.90;;;;;;4889498;29;20084;-62
2024/02/18 01:46:09;;;;;;;25.38;8.80;;;9.60;99.90;;;;;;4888373;29;20029;-62
2024/02/18 01:48:35;;;;;;;22.65;8.60;;;9.60;99.90;;;;;;4890186;29;20036;-62
2024/02/18 01:51:01;;;;;;;19.38;8.00;;;9.70;99.90;;;;;;4892452;29;20079;-62
2024/02/18 01:53:27;;;;;;;21.30;7.88;;;9.60;99.90;;;;;;4889349;29;20040;-63
2024/02/18 01:55:55;;;;;;;21.42;8.38;;;9.60;99.90;;;;;;4887789;29;20037;-63
2024/02/18 01:58:20;;;;;;;20.10;8.70;;;9.60;99.90;;;;;;4889792;29;20025;-62
2024/02/18 02:00:48;;;;;;;18.08;8.25;;;9.60;99.90;;;;;;4889016;29;20051;-62
2024/02/18 02:03:14;;;;;;;20.70;8.35;;;9.60;99.90;;;;;;4889086;29;20432;-63
2024/02/18 02:05:41;;;;;;;23.70;7.40;;;9.60;99.90;;;;;;4887114;29;20021;-63
2024/02/18 02:08:07;;;;;;;21.50;8.73;;;9.60;99.90;;;;;;4887914;29;20060;-63
2024/02/18 02:10:34;;;;;;;19.40;8.10;;;9.60;99.90;;;;;;4874114;29;20031;-63
2024/02/18 02:12:59;;;;;;;20.75;8.10;;;9.50;99.90;;;;;;4887525;29;20393;-63
2024/02/18 02:15:25;;;;;;;18.70;7.82;;;9.50;99.90;;;;;;4875577;29;20041;-63
2024/02/18 02:17:51;;;;;;;23.10;8.50;;;9.50;99.90;;;;;;4896744;29;20476;-63
2024/02/18 02:20:16;;;;;;;16.88;7.93;;;9.50;99.90;;;;;;4897835;29;20063;-63
2024/02/18 02:22:42;;;;;;;21.65;8.95;;;9.50;99.90;;;;;;4895818;29;20032;-63
2024/02/18 02:25:11;;;;;;;18.35;8.50;;;9.50;99.90;;;;;;4898047;29;20801;-63
2024/02/18 02:27:40;;;;;;;22.33;9.48;;;9.50;99.90;;;;;;4893427;29;20033;-63
2024/02/18 02:30:06;;;;;;;23.20;9.80;;;9.50;99.90;;;;;;4895161;29;20131;-64
2024/02/18 02:32:32;;;;;;;25.08;10.00;;;9.40;99.90;;;;;;4870253;29;20036;-64
2024/02/18 02:34:58;;;;;;;20.40;9.75;;;9.40;99.90;;;;;;4889911;29;20036;-64
2024/02/18 02:37:25;;;;;;;25.48;9.93;;;9.40;99.90;;;;;;4887828;29;20037;-64
2024/02/18 02:39:50;;;;;;;24.35;9.75;;;9.40;99.90;;;;;;4888928;29;20025;-63
2024/02/18 02:42:17;;;;;;;20.38;9.10;;;9.40;99.90;;;;;;4888163;29;20120;-63
2024/02/18 02:44:43;;;;;;;21.98;10.18;;;9.30;99.90;;;;;;4887796;29;20037;-63
2024/02/18 02:47:08;;;;;;;22.27;10.02;;;9.30;99.90;;;;;;4889022;29;20447;-64
2024/02/18 02:49:34;;;;;;;22.08;9.63;;;9.20;99.90;;;;;;4888417;29;20076;-64
2024/02/18 02:52:00;;;;;;;23.52;9.98;;;9.20;99.90;;;;;;4885398;29;20036;-64
2024/02/18 02:54:25;;;;;;;21.52;9.90;;;9.10;99.90;;;;;;4891945;29;20037;-63
2024/02/18 02:56:51;;;;;;;21.52;9.80;;;9.00;99.90;;;;;;4886819;29;20052;-64
2024/02/18 02:59:17;;;;;;;24.60;9.93;;;8.80;99.90;;;;;;4888683;29;20029;-64
2024/02/18 03:01:42;;;;;;;27.42;10.65;;;8.80;99.90;;;;;;4871016;29;20025;-63
2024/02/18 03:04:09;;;;;;;26.50;10.43;;;8.70;99.90;;;;;;4887547;29;20033;-64
2024/02/18 03:06:35;;;;;;;20.60;10.13;;;8.60;99.90;;;;;;4888246;29;20076;-63
2024/02/18 03:09:01;;;;;;;21.70;9.90;;;8.60;99.90;;;;;;4887012;29;20041;-64
2024/02/18 03:11:27;;;;;;;24.00;10.48;;;8.40;99.90;;;;;;4880619;29;20025;-65
2024/02/18 03:13:52;;;;;;;20.48;9.63;;;8.40;99.90;;;;;;4886100;29;20169;-64
2024/02/18 03:16:18;;;;;;;21.15;9.20;;;8.30;99.90;;;;;;4888732;29;20036;-64
2024/02/18 03:18:44;;;;;;;23.23;9.55;;;8.30;99.90;;;;;;4888761;29;20142;-65
2024/02/18 03:21:09;;;;;;;20.08;9.35;;;8.30;99.90;;;;;;4888026;29;20063;-63
2024/02/18 03:23:35;;;;;;;20.08;9.65;;;8.40;99.90;;;;;;4890092;29;20499;-64
2024/02/18 03:26:01;;;;;;;18.80;9.50;;;8.40;99.90;;;;;;4889816;29;20035;-64
2024/02/18 03:28:26;;;;;;;22.98;9.13;;;8.40;99.90;;;;;;4886506;29;20028;-64
2024/02/18 03:30:53;;;;;;;22.27;8.60;;;8.40;99.90;;;;;;4893397;29;20043;-64
2024/02/18 03:33:18;;;;;;;19.60;8.45;;;8.30;99.90;;;;;;4885301;29;20045;-64
2024/02/18 03:35:45;;;;;;;22.02;9.32;;;8.30;99.90;;;;;;4887405;29;20466;-63
2024/02/18 03:38:10;;;;;;;22.65;9.02;;;8.30;99.90;;;;;;4888796;29;20536;-63
2024/02/18 03:40:36;;;;;;;25.17;9.18;;;8.20;99.90;;;;;;4887580;29;20024;-63
2024/02/18 03:43:02;;;;;;;21.98;9.02;;;8.20;99.90;;;;;;4869036;29;20089;-63
2024/02/18 03:45:28;;;;;;;20.58;8.68;;;8.10;99.90;;;;;;4885973;29;20021;-63
2024/02/18 03:47:54;;;;;;;21.30;8.85;;;7.90;99.90;;;;;;4888764;29;20032;-63
2024/02/18 03:50:20;;;;;;;21.98;9.65;;;8.10;99.90;;;;;;4885450;29;20045;-63
2024/02/18 03:52:46;;;;;;;23.27;8.73;;;8.30;99.90;;;;;;4886367;29;20031;-63
2024/02/18 03:55:13;;;;;;;22.23;9.02;;;8.40;99.90;;;;;;4887997;29;20388;-63
2024/02/18 03:57:39;;;;;;;22.30;9.32;;;8.40;99.90;;;;;;4885566;29;20077;-63
2024/02/18 04:00:10;;;;;;;18.77;8.05;;;8.50;99.90;;;;;;4877957;29;20145;-63
2024/02/18 04:02:40;;;;;;;21.35;8.57;;;8.50;99.90;;;;;;4871648;29;20116;-63
2024/02/18 04:05:07;;;;;;;21.77;8.85;;;8.50;99.90;;;;;;4887747;29;20024;-63
2024/02/18 04:07:36;;;;;;;24.67;8.73;;;8.50;99.90;;;;;;4885128;29;20101;-62
2024/02/18 04:10:04;;;;;;;17.95;6.80;;;8.60;99.90;;;;;;4887683;29;20036;-63
2024/02/18 04:12:30;;;;;;;15.23;6.55;;;8.60;99.90;;;;;;4886281;29;20040;-62
2024/02/18 04:14:56;;;;;;;18.60;6.05;;;8.60;99.90;;;;;;4870822;29;20123;-63
2024/02/18 04:17:22;;;;;;;18.33;6.22;;;8.60;99.90;;;;;;4885201;29;20617;-63
2024/02/18 04:19:47;;;;;;;16.02;6.10;;;8.70;99.90;;;;;;4888426;29;20064;-63
2024/02/18 04:22:13;;;;;;;12.57;5.22;;;8.70;99.90;;;;;;4877616;29;20057;-63
2024/02/18 04:24:42;;;;;;;14.32;5.72;;;8.80;99.90;;;;;;4885713;29;20360;-61
2024/02/18 04:27:08;;;;;;;12.35;5.47;;;8.70;99.90;;;;;;4870377;29;20029;-61
2024/02/18 04:29:37;;;;;;;13.02;5.75;;;8.80;99.90;;;;;;4888347;29;20028;-61
2024/02/18 04:32:03;;;;;;;15.90;5.15;;;8.80;99.90;;;;;;4886687;29;20040;-61
2024/02/18 04:34:29;;;;;;;13.02;4.90;;;8.90;99.90;;;;;;4886133;29;20039;-61
2024/02/18 04:36:55;;;;;;;14.10;5.18;;;8.90;99.90;;;;;;4887690;29;20028;-61
2024/02/18 04:39:20;;;;;;;13.07;5.20;;;8.90;99.90;;;;;;4887175;29;20032;-61
2024/02/18 04:41:46;;;;;;;13.80;4.50;;;8.90;99.90;;;;;;4887470;29;20503;-61
2024/02/18 04:44:12;;;;;;;14.63;5.30;;;8.90;99.90;;;;;;4888735;29;20037;-61
2024/02/18 04:46:37;;;;;;;16.90;5.10;;;8.90;99.90;;;;;;4886617;29;20072;-62
2024/02/18 04:49:04;;;;;;;12.13;5.22;;;8.90;99.90;;;;;;4888048;29;20428;-61
2024/02/18 04:51:30;;;;;;;12.95;4.80;;;8.80;99.90;;;;;;4885266;29;20025;-61
2024/02/18 04:53:55;;;;;;;13.45;5.38;;;8.90;99.90;;;;;;4886826;29;20036;-61
2024/02/18 04:56:21;;;;;;;12.18;5.05;;;8.90;99.90;;;;;;4887246;29;20029;-62
2024/02/18 04:58:47;;;;;;;14.88;5.22;;;9.00;99.90;;;;;;4884474;29;20132;-62
2024/02/18 05:01:12;;;;;;;14.77;5.10;;;8.90;99.90;;;;;;4887869;29;20037;-62
2024/02/18 05:03:40;;;;;;;11.68;4.90;;;8.80;99.90;;;;;;4885129;29;20029;-62
2024/02/18 05:06:09;;;;;;;14.20;5.53;;;8.80;99.90;;;;;;4886803;29;20032;-62
2024/02/18 05:08:35;;;;;;;14.27;5.15;;;8.80;99.90;;;;;;4885152;29;20040;-63
2024/02/18 05:11:01;;;;;;;11.07;4.65;;;8.80;99.90;;;;;;4886400;29;20509;-61
2024/02/18 05:13:27;;;;;;;13.88;5.47;;;8.80;99.90;;;;;;4887257;29;20148;-62
2024/02/18 05:15:52;;;;;;;12.10;4.72;;;8.80;99.90;;;;;;4884620;29;20037;-62
2024/02/18 05:18:22;;;;;;;11.48;4.65;;;8.80;99.90;;;;;;4888654;29;20084;-62
2024/02/18 05:20:47;;;;;;;12.07;4.60;;;8.80;99.90;;;;;;4882783;29;20037;-62
2024/02/18 05:23:13;;;;;;;13.77;4.68;;;8.80;99.90;;;;;;4885246;29;20040;-62
2024/02/18 05:25:39;;;;;;;12.45;4.80;;;8.70;99.90;;;;;;4887295;29;20024;-62
2024/02/18 05:28:08;;;;;;;13.15;4.25;;;8.70;99.90;;;;;;4885664;29;20024;-62
2024/02/18 05:30:34;;;;;;;12.48;4.55;;;8.70;99.90;;;;;;4891757;29;20077;-62
2024/02/18 05:32:59;;;;;;;11.88;4.53;;;8.80;99.90;;;;;;4885894;29;20537;-62
2024/02/18 05:35:25;;;;;;;12.13;4.30;;;8.90;99.90;;;;;;4886232;29;20119;-62
2024/02/18 05:37:51;;;;;;;9.35;3.95;;;8.80;99.90;;;;;;4884489;29;20033;-62
2024/02/18 05:40:17;;;;;;;10.30;3.83;;;8.90;99.90;;;;;;4870425;29;20029;-62
2024/02/18 05:42:43;;;;;;;11.20;4.13;;;8.90;99.90;;;;;;4886574;29;20032;-62
2024/02/18 05:45:09;;;;;;;14.02;4.57;;;8.80;99.90;;;;;;4884644;29;20033;-62
2024/02/18 05:47:35;;;;;;;11.05;4.28;;;8.80;99.90;;;;;;4886374;29;20048;-62
2024/02/18 05:50:00;;;;;;;10.38;4.30;;;8.80;99.90;;;;;;4888049;29;20045;-63
2024/02/18 05:52:26;;;;;;;11.32;4.28;;;8.70;99.90;;;;;;4884346;29;20024;-62
2024/02/18 05:54:52;;;;;;;15.20;4.45;;;8.70;99.90;;;;;;4883439;29;20480;-63
2024/02/18 05:57:17;;;;;;;12.98;4.55;;;8.70;99.90;;;;;;4886076;29;20029;-62
2024/02/18 05:59:44;;;;;;;9.88;4.20;;;8.70;99.90;;;;;;4886759;29;20032;-62
2024/02/18 06:02:09;;;;;;;11.48;4.57;;;8.70;99.90;;;;;;4882540;29;20056;-65
2024/02/18 06:04:35;;;;;;;11.48;4.68;;;8.60;99.90;;;;;;4866544;29;20053;-63
2024/02/18 06:07:00;;;;;;;12.25;4.38;;;8.60;99.90;;;;;;4886311;29;20033;-62
2024/02/18 06:09:26;;;;;;;9.95;4.07;;;8.60;99.90;;;;;;4888245;29;20032;-62
2024/02/18 06:11:52;;;;;;;11.40;4.20;;;8.60;99.90;;;;;;4870972;29;20384;-62
2024/02/18 06:14:18;;;;;;;11.23;4.13;;;8.60;99.90;;;;;;4890005;29;20024;-62
2024/02/18 06:16:44;;;;;;;10.82;4.50;;;8.60;99.90;;;;;;4887055;29;20053;-62
2024/02/18 06:19:10;;;;;;;13.10;5.00;;;8.60;99.90;;;;;;4891061;29;20132;-62
2024/02/18 06:21:35;;;;;;;11.25;4.60;;;8.70;99.90;;;;;;4888398;29;20025;-63
2024/02/18 06:24:01;;;;;;;12.18;4.90;;;8.60;99.90;;;;;;4890081;29;20077;-63
2024/02/18 06:26:28;;;;;;;12.98;4.78;;;8.60;99.90;;;;;;4889596;29;20105;-63
2024/02/18 06:28:55;;;;;;;9.52;4.03;;;8.60;99.90;;;;;;4888219;29;20833;-62
2024/02/18 06:31:21;;;;;;;12.10;4.45;;;8.70;99.90;;;;;;4893506;29;20104;-62
2024/02/18 06:33:48;;;;;;;10.48;4.47;;;8.70;99.90;;;;;;4887146;29;20025;-63
2024/02/18 06:36:14;;;;;;;10.35;4.25;;;8.80;99.90;;;;;;4893033;29;20107;-62
2024/02/18 06:38:45;;;;;;;11.77;4.75;;;8.80;99.90;;;;;;4886453;29;20045;-62
2024/02/18 06:41:11;;;;;;;13.02;4.50;;;8.80;99.90;;;;;;4887247;29;20025;-63
2024/02/18 06:43:37;;;;;;;11.85;4.30;;;8.80;99.90;;;;;;4889708;29;20091;-62
2024/02/18 06:46:03;;;;;;;10.40;4.18;;;8.90;99.90;;;;;;4887742;29;20025;-62
2024/02/18 06:48:30;;;;;;;9.77;4.25;;;8.90;99.90;;;;;;4890570;29;20370;-62
2024/02/18 06:50:56;;;;;;;11.77;4.35;;;8.80;99.90;;;;;;4886927;29;20106;-63
2024/02/18 06:53:21;;;;;;;9.40;4.15;;;8.80;99.90;;;;;;4886560;29;20380;-63
2024/02/18 06:55:47;;;;;;;11.73;4.95;;;8.80;99.90;;;;;;4891961;29;20040;-63
2024/02/18 06:58:14;;;;;;;10.27;4.05;;;8.80;99.90;;;;;;4887054;29;20064;-63
2024/02/18 07:00:40;;;;;;;10.57;4.10;;;8.70;99.90;;;;;;4889212;29;20381;-64
2024/02/18 07:03:06;;;;;;;11.63;4.55;;;8.80;99.90;;;;;;4886746;29;20489;-63
2024/02/18 07:05:32;;;;;;;10.35;4.03;;;8.80;99.90;;;;;;4889670;29;20111;-64
2024/02/18 07:07:58;;;;;;;11.43;4.53;;;8.80;99.90;;;;;;4885362;29;20067;-63
2024/02/18 07:10:24;;;;;;;9.45;3.85;;;8.80;99.90;;;;;;4886470;29;20033;-62
2024/02/18 07:12:50;;;;;;;10.57;4.05;;;8.90;99.90;;;;;;4885537;29;20048;-62
2024/02/18 07:15:15;;;;;;;10.57;4.13;;;8.80;99.90;;;;;;4885375;29;20037;-63
2024/02/18 07:17:41;;;;;;;9.95;4.22;;;8.90;99.90;;;;;;4872521;29;20029;-62
2024/02/18 07:20:08;;;;;;;9.18;3.50;;;8.90;99.90;;;;;;4888521;29;20052;-62
2024/02/18 07:22:34;;;;;;;9.07;3.53;;;8.90;99.90;;;;;;4884731;29;20064;-62
2024/02/18 07:24:59;;;;;;;10.25;3.50;;;9.00;99.90;;;;;;4888866;29;20053;-63
2024/02/18 07:27:25;;;;;;;7.82;3.50;;;8.90;99.90;;;;;;4888599;29;20041;-62
2024/02/18 07:29:51;;;;;;;13.68;4.15;;;8.90;99.90;;;;;;4890571;29;20495;-62
2024/02/18 07:32:16;;;;;;;8.63;3.70;;;8.90;99.90;;;;;;4888742;29;20036;-62
2024/02/18 07:34:42;;;;;;;12.35;3.30;;;8.90;99.90;;;;;;4869455;29;20025;-62
2024/02/18 07:37:07;;;;;;;10.10;3.33;;;8.90;99.90;;;;;;4888751;29;20029;-62
2024/02/18 07:39:33;;;;;;;13.32;3.80;;;8.90;99.90;;;;;;4885978;29;20033;-63
2024/02/18 07:41:59;;;;;;;12.40;3.20;;;8.80;99.90;;;;;;4887065;29;20033;-62
2024/02/18 07:44:24;;;;;;;9.27;3.53;;;8.80;99.90;;;;;;4888551;29;20112;-63
2024/02/18 07:46:53;;;;;;;10.43;3.70;;;8.70;99.90;;;;;;4886521;29;20123;-63
2024/02/18 07:49:22;;;;;;;8.93;3.72;;;8.70;99.90;;;;;;4891441;29;20529;-62
2024/02/18 07:51:47;;;;;;;8.13;3.50;;;8.70;99.90;;;;;;4883711;29;20126;-63
2024/02/18 07:54:13;;;;;;;8.60;3.80;;;8.60;99.90;;;;;;4886566;29;20492;-63
2024/02/18 07:56:46;;;;;;;13.05;3.60;;;8.60;99.90;;;;;;4887505;29;20131;-62
2024/02/18 07:59:12;;;;;;;9.32;3.47;;;8.50;99.90;;;;;;4886437;29;20094;-63
2024/02/18 08:01:38;;;;;;;10.90;3.30;;;8.50;99.90;;;;;;4886278;29;20064;-63
2024/02/18 08:04:04;;;;;;;8.13;3.30;;;8.50;99.90;;;;;;4885622;29;20606;-63
2024/02/18 08:06:31;;;;;;;10.48;3.38;;;8.50;99.90;;;;;;4885238;29;20117;-63
2024/02/18 08:09:00;;;;;;;9.43;3.05;;;8.40;99.90;;;;;;4887914;29;20029;-63
2024/02/18 08:11:26;;;;;;;12.00;3.75;;;8.40;99.90;;;;;;4885487;29;20033;-62
2024/02/18 08:13:51;;;;;;;7.68;3.03;;;8.40;99.90;;;;;;4887140;29;20094;-63
2024/02/18 08:16:19;;;;;;;9.25;3.47;;;8.40;99.90;;;;;;4886145;29;20040;-63
2024/02/18 08:18:45;;;;;;;10.13;3.35;;;8.40;99.90;;;;;;4889934;29;20045;-62
2024/02/18 08:21:11;;;;;;;8.50;3.17;;;8.30;99.90;;;;;;4885856;29;20036;-62
2024/02/18 08:23:37;;;;;;;11.32;3.78;;;8.30;99.90;;;;;;4866974;29;20400;-63
2024/02/18 08:26:03;;;;;;;8.60;3.22;;;8.20;99.90;;;;;;4888183;29;20832;-63
2024/02/18 08:28:29;;;;;;;10.95;3.60;;;8.20;99.90;;;;;;4887075;29;20068;-62
2024/02/18 08:30:55;;;;;;;12.68;3.90;;;8.10;99.90;;;;;;4889176;29;20043;-63
2024/02/18 08:33:21;;;;;;;11.40;3.83;;;8.20;99.90;;;;;;4885672;29;20035;-62
2024/02/18 08:35:47;;;;;;;10.45;3.47;;;8.10;99.90;;;;;;4886573;29;20033;-63
2024/02/18 08:38:12;;;;;;;14.15;4.07;;;8.10;99.90;;;;;;4886384;29;20060;-63
2024/02/18 08:40:38;;;;;;;12.52;4.32;;;8.10;99.90;;;;;;4885345;29;20033;-63
2024/02/18 08:43:03;;;;;;;12.60;4.53;;;8.00;99.90;;;;;;4870591;29;20028;-62
2024/02/18 08:45:30;;;;;;;9.90;3.95;;;8.00;99.90;;;;;;4883722;29;20032;-63
2024/02/18 08:47:56;;;;;;;11.15;4.20;;;7.90;99.90;;;;;;4887924;29;20029;-62
2024/02/18 08:50:22;;;;;;;13.45;4.88;;;8.00;99.90;;;;;;4885029;29;20037;-63
2024/02/18 08:52:47;;;;;;;13.10;4.80;;;7.90;99.90;;;;;;4882517;29;20481;-63
2024/02/18 08:55:13;;;;;;;11.55;5.10;;;7.90;99.90;;;;;;4885103;29;20120;-63
2024/02/18 08:57:38;;;;;;;14.95;4.80;;;7.90;99.90;;;;;;4885677;29;20043;-63
2024/02/18 09:00:07;;;;;;;12.63;5.07;;;7.90;99.90;;;;;;4885245;29;20025;-63
2024/02/18 09:02:32;;;;;;;12.63;4.75;;;7.90;99.90;;;;;;4887553;29;20025;-62
2024/02/18 09:04:59;;;;;;;13.80;4.53;;;7.90;99.90;;;;;;4883209;29;20040;-62
2024/02/18 09:07:26;;;;;;;11.38;4.32;;;7.90;99.90;;;;;;4880895;29;20039;-62
2024/02/18 09:09:52;;;;;;;12.80;4.55;;;7.80;99.90;;;;;;4883232;29;20036;-62
2024/02/18 09:12:18;;;;;;;12.27;4.80;;;7.90;99.90;;;;;;4886609;29;21004;-64
2024/02/18 09:14:43;;;;;;;11.60;4.93;;;7.90;99.90;;;;;;4885331;29;20091;-64
2024/02/18 09:17:09;;;;;;;12.40;4.53;;;7.90;99.90;;;;;;4882348;29;20043;-63
2024/02/18 09:19:35;;;;;;;12.95;3.95;;;7.90;99.90;;;;;;4886844;29;20063;-63
2024/02/18 09:22:01;;;;;;;9.93;4.13;;;7.90;99.90;;;;;;4867206;29;20060;-63
2024/02/18 09:24:27;;;;;;;8.95;3.03;;;7.90;99.90;;;;;;4872444;29;20469;-63
2024/02/18 09:26:52;;;;;;;12.23;3.47;;;7.90;99.90;;;;;;4883155;29;20116;-63
2024/02/18 09:29:19;;;;;;;15.07;4.00;;;7.90;99.90;;;;;;4886705;29;20039;-64
2024/02/18 09:31:47;;;;;;;8.55;3.80;;;7.90;99.90;;;;;;4888087;29;20021;-64
2024/02/18 09:34:12;;;;;;;13.00;3.95;;;7.90;99.90;;;;;;4882778;29;20028;-63
2024/02/18 09:36:38;;;;;;;11.02;4.25;;;8.00;99.90;;;;;;4881623;29;20032;-62
2024/02/18 09:39:04;;;;;;;10.52;3.58;;;7.90;99.90;;;;;;4882286;29;20025;-63
2024/02/18 09:41:29;;;;;;;12.23;4.47;;;7.90;99.90;;;;;;4883499;29;20072;-63
2024/02/18 09:44:05;;;;;;;11.27;4.03;;;7.90;99.90;;;;;;4887515;29;20687;-62
2024/02/18 09:46:34;;;;;;;7.53;2.72;;;7.90;99.90;;;;;;4885437;29;20029;-63
2024/02/18 09:49:00;;;;;;;10.95;3.72;;;8.00;99.90;;;;;;4889388;29;20115;-62
2024/02/18 09:51:27;;;;;;;10.68;4.53;;;8.00;99.90;;;;;;4888017;29;20044;-64
2024/02/18 09:53:54;;;;;;;11.63;3.97;;;7.90;99.90;;;;;;4887810;29;20032;-62
2024/02/18 09:56:20;;;;;;;11.90;3.72;;;8.00;99.90;;;;;;4885011;29;20485;-63
2024/02/18 09:58:46;;;;;;;11.55;3.70;;;8.00;99.90;;;;;;4890769;29;20040;-63
2024/02/18 10:01:15;;;;;;;8.68;3.35;;;8.00;99.90;;;;;;4889554;29;20816;-64
2024/02/18 10:03:40;;;;;;;12.73;3.80;;;8.10;99.90;;;;;;4890046;29;20031;-66
2024/02/18 10:06:06;;;;;;;9.13;3.30;;;8.10;99.90;;;;;;4872116;29;20025;-64
2024/02/18 10:08:51;;;;;;;9.70;3.55;;;8.10;99.90;;;;;;4889560;29;20033;-64
2024/02/18 10:11:21;;;;;;;8.73;3.42;;;8.20;99.90;;;;;;4875090;29;20033;-64
2024/02/18 10:13:51;;;;;;;12.23;3.53;;;8.20;99.90;;;;;;4888790;29;20040;-64
2024/02/18 10:16:17;;;;;;;8.82;3.08;;;8.20;99.90;;;;;;4883830;29;20504;-64
2024/02/18 10:18:45;;;;;;;7.28;3.08;;;8.10;99.90;;;;;;4888285;29;20040;-64
2024/02/18 10:21:14;;;;;;;11.00;3.00;;;8.30;99.90;;;;;;4892633;29;20425;-64
2024/02/18 10:23:40;;;;;;;8.25;3.15;;;8.20;99.90;;;;;;4876593;29;20020;-65
2024/02/18 10:26:09;;;;;;;8.85;3.42;;;8.30;99.90;;;;;;4885123;29;20028;-64
2024/02/18 10:28:38;;;;;;;8.30;3.25;;;8.20;99.90;;;;;;4889713;29;20081;-65
2024/02/18 10:31:07;;;;;;;7.68;2.75;;;8.30;99.90;;;;;;4886833;29;20438;-65
2024/02/18 10:33:36;;;;;;;9.30;3.10;;;8.30;99.90;;;;;;4890502;29;20033;-65
2024/02/18 10:36:08;;;;;;;9.95;2.67;;;8.30;99.90;;;;;;4890610;29;20429;-64
2024/02/18 10:38:40;;;;;;;19.38;3.42;;;8.40;99.90;;;;;;4889219;29;20128;-64
2024/02/18 10:41:10;;;;;;;8.93;2.83;;;8.40;99.90;;;;;;4890128;29;20557;-67
2024/02/18 10:43:45;;;;;;;6.55;2.28;;;8.40;99.90;;;;;;4886643;29;20489;-64
2024/02/18 10:46:13;;;;;;;7.18;2.72;;;8.40;99.90;;;;;;4888212;29;20081;-64
2024/02/18 10:48:40;;;;;;;7.47;3.05;;;8.40;99.90;;;;;;4872992;29;20056;-63
2024/02/18 10:51:07;;;;;;;10.40;2.72;;;8.50;99.90;;;;;;4891099;29;20040;-63
2024/02/18 10:53:39;;;;;;;9.45;2.90;;;8.40;99.90;;;;;;4886828;29;20028;-63
2024/02/18 10:56:18;;;;;;;9.77;2.90;;;8.40;99.90;;;;;;4871728;29;20040;-63
2024/02/18 10:58:57;;;;;;;6.70;2.78;;;8.30;99.90;;;;;;4888472;29;20750;-63
2024/02/18 11:01:25;;;;;;;7.30;2.45;;;8.30;99.90;;;;;;4886597;29;20101;-64
2024/02/18 11:03:56;;;;;;;8.48;2.70;;;8.20;99.90;;;;;;4888791;29;20024;-63
2024/02/18 11:06:22;;;;;;;9.23;2.67;;;8.20;99.90;;;;;;4873002;29;20063;-63
2024/02/18 11:08:51;;;;;;;13.48;2.15;;;8.10;99.90;;;;;;4884176;29;20068;-63
2024/02/18 11:11:17;;;;;;;9.18;3.10;;;8.10;99.90;;;;;;4886482;29;20025;-63
2024/02/18 11:13:44;;;;;;;9.35;2.95;;;8.00;99.90;;;;;;4888967;29;20036;-64
2024/02/18 11:16:10;;;;;;;8.82;3.15;;;8.00;99.90;;;;;;4889043;29;20029;-63
2024/02/18 11:18:37;;;;;;;6.30;2.13;;;8.00;99.90;;;;;;4889397;29;20060;-64
2024/02/18 11:21:04;;;;;;;7.50;2.95;;;8.00;99.90;;;;;;4870732;29;20037;-64
2024/02/18 11:23:32;;;;;;;7.95;2.80;;;8.00;99.90;;;;;;4887270;29;20029;-64
2024/02/18 11:25:58;;;;;;;7.82;2.92;;;8.00;99.90;;;;;;4870062;29;20036;-63
2024/02/18 11:28:24;;;;;;;8.98;3.03;;;8.10;99.90;;;;;;4886663;29;20037;-64
2024/02/18 11:30:50;;;;;;;10.52;3.63;;;8.00;99.90;;;;;;4886708;29;20125;-64
2024/02/18 11:33:19;;;;;;;8.75;3.10;;;8.20;99.90;;;;;;4887418;29;20051;-65
2024/02/18 11:35:45;;;;;;;10.57;3.27;;;8.10;99.90;;;;;;4884628;29;20048;-64
2024/02/18 11:38:11;;;;;;;11.10;2.58;;;8.00;99.90;;;;;;4889156;29;20505;-64
2024/02/18 11:40:47;;;;;;;8.80;2.65;;;8.00;99.90;;;;;;4875621;29;20017;-64
2024/02/18 11:43:14;;;;;;;17.33;3.55;;;8.10;99.90;;;;;;4878336;29;20033;-63
2024/02/18 11:45:46;;;;;;;7.88;2.70;;;8.10;99.90;;;;;;4884643;29;20393;-64
2024/02/18 11:48:12;;;;;;;8.70;2.92;;;8.10;99.90;;;;;;4889069;29;20044;-63
2024/02/18 11:50:39;;;;;;;7.78;3.30;;;8.00;99.90;;;;;;4884867;29;20028;-64
2024/02/18 11:53:06;;;;;;;7.85;2.95;;;8.00;99.90;;;;;;4883585;29;20048;-63
2024/02/18 11:55:33;;;;;;;8.77;2.97;;;8.00;99.90;;;;;;4884683;29;20048;-63
2024/02/18 11:57:59;;;;;;;6.15;2.47;;;8.10;99.90;;;;;;4884754;29;20032;-63
2024/02/18 12:00:25;;;;;;;9.52;2.92;;;8.10;99.90;;;;;;4886574;29;20032;-64
2024/02/18 12:02:53;;;;;;;10.55;3.30;;;8.10;99.90;;;;;;4888267;29;20025;-64
2024/02/18 12:05:23;;;;;;;9.90;3.10;;;8.20;99.90;;;;;;4880359;29;20018;-63
2024/02/18 12:07:55;;;;;;;6.28;2.33;;;8.20;99.90;;;;;;4884995;29;20084;-63
2024/02/18 12:10:22;;;;;;;12.70;3.38;;;8.30;99.90;;;;;;4881560;29;20036;-63
2024/02/18 12:12:47;;;;;;;8.77;3.15;;;8.30;99.90;;;;;;4886071;29;20641;-63
2024/02/18 12:15:23;;;;;;;9.15;3.30;;;8.30;99.90;;;;;;4881677;29;20040;-63
2024/02/18 12:17:52;;;;;;;9.40;3.15;;;8.40;99.90;;;;;;4885416;29;20028;-63
2024/02/18 12:20:19;;;;;;;9.20;2.70;;;8.50;99.90;;;;;;4866021;29;20139;-63
2024/02/18 12:22:46;;;;;;;7.05;2.22;;;8.50;99.90;;;;;;4888112;29;20052;-63
2024/02/18 12:25:14;;;;;;;10.43;2.97;;;8.60;99.90;;;;;;4874634;29;20436;-63
2024/02/18 12:27:40;;;;;;;8.45;2.58;;;8.70;99.90;;;;;;4871458;29;20128;-63
2024/02/18 12:30:07;;;;;;;10.43;2.70;;;8.60;99.90;;;;;;4890184;29;20059;-63
2024/02/18 12:32:36;;;;;;;12.05;2.28;;;8.60;99.90;;;;;;4889200;29;20119;-63
2024/02/18 12:35:03;;;;;;;7.63;3.38;;;8.60;99.90;;;;;;4884847;29;20028;-63
2024/02/18 12:37:29;;;;;;;9.45;2.83;;;8.70;99.90;;;;;;4877290;29;20042;-63
2024/02/18 12:39:55;;;;;;;8.90;3.30;;;8.70;99.90;;;;;;4888585;29;20035;-64
2024/02/18 12:42:21;;;;;;;10.32;3.03;;;8.70;99.90;;;;;;4887753;29;20033;-62
2024/02/18 12:44:47;;;;;;;12.98;3.20;;;8.70;99.90;;;;;;4881905;29;20124;-62